Buoy 41991

sailwx.info

Track history (hours):
 
Tides and Currents Weather Stations Pressure Air Temp Water Temp Dewpoint Dewpoint Depression Visibility Wind Speed Wind Dir Waves Ship Positions

Drifting buoy 41991

Last reported at 2014-Oct-30 16:59 UTC. Time now 2014-Oct-30 18:16 UTC.
Position N 32°16' W 043°26'.

Water temperature 24.5 ° C

Date/timePositionNaut miles runAvg speedWind from/ knotsBaromVisibWave heightAir tempDewpointWater temp
2014-Oct-30 16:59N 32°16' W 043°26'0 0.3 24.5
2014-Oct-30 15:21N 32°17' W 043°26'1 1.1 24.4
2014-Oct-30 13:59N 32°17' W 043°25'0 0.0 24.4
2014-Oct-30 13:13N 32°17' W 043°25'1 0.5 24.4
2014-Oct-30 12:12N 32°18' W 043°24'0 0.0 24.4
2014-Oct-30 11:31N 32°18' W 043°24'1 9.0 24.4
2014-Oct-30 11:22N 32°19' W 043°23'0 0.1 24.4
2014-Oct-30 09:28N 32°19' W 043°24'0 6.7 24.4
2014-Oct-30 09:25N 32°19' W 043°23'0 0.0 24.4
2014-Oct-30 09:17N 32°19' W 043°23'1 5.6 24.4
2014-Oct-30 09:10N 32°20' W 043°24'0 0.0 24.4
2014-Oct-30 07:59N 32°20' W 043°24'0 1.7 24.4
2014-Oct-30 07:48N 32°20' W 043°24'0 1.7 24.4
2014-Oct-30 07:38N 32°20' W 043°24'0 1.2 24.4
2014-Oct-30 07:34N 32°20' W 043°24'1 8.1 24.4
2014-Oct-30 07:30N 32°20' W 043°23'0 0.0 24.4
2014-Oct-30 07:13N 32°20' W 043°23'1 0.5 24.4
2014-Oct-30 05:51N 32°21' W 043°24'0 0.0 24.4
2014-Oct-30 05:36N 32°21' W 043°24'1 7.0 24.4
2014-Oct-30 05:29N 32°20' W 043°25'2 0.6 24.4
2014-Oct-30 01:32N 32°23' W 043°24'0 0.6 24.4
2014-Oct-30 00:51N 32°23' W 043°25'0 4.2 24.4
2014-Oct-30 00:44N 32°23' W 043°24'0 0.7 24.5
2014-Oct-29 23:59N 32°23' W 043°25'0 0.0 24.4
2014-Oct-29 23:54N 32°23' W 043°25'0 0.0 24.4
2014-Oct-29 23:09N 32°23' W 043°25'1 7.7 24.5
2014-Oct-29 23:02N 32°23' W 043°24'117.3 24.5
2014-Oct-29 22:59N 32°23' W 043°24'0 0.0 24.5
2014-Oct-29 22:27N 32°23' W 043°24'1 3.5 24.5
2014-Oct-29 22:18N 32°23' W 043°24'0 0.0 24.5
2014-Oct-29 22:12N 32°23' W 043°24'1 0.8 24.5
2014-Oct-29 21:10N 32°23' W 043°25'0 0.0 24.5
2014-Oct-29 20:50N 32°23' W 043°25'0 6.2 24.5
2014-Oct-29 20:47N 32°23' W 043°25'0 0.0 24.5
2014-Oct-29 20:38N 32°23' W 043°25'2 1.6 24.5
2014-Oct-29 19:32N 32°23' W 043°23'0 0.2 24.5
2014-Oct-29 19:12N 32°23' W 043°23'117.2 24.5
2014-Oct-29 19:07N 32°23' W 043°24'0 0.0 24.5
2014-Oct-29 17:48N 32°23' W 043°24'1 3.7 24.5
2014-Oct-29 17:32N 32°23' W 043°23'0 0.0 24.5
2014-Oct-29 17:13N 32°23' W 043°23'1 0.5 24.5
2014-Oct-29 15:31N 32°23' W 043°23'2 1.7 24.5
2014-Oct-29 14:20N 32°25' W 043°21'3 1.1 24.5
2014-Oct-29 11:45N 32°27' W 043°22'0 0.0 24.5
2014-Oct-29 10:58N 32°27' W 043°22'1 0.8 24.5
2014-Oct-29 10:08N 32°28' W 043°23'0 0.7 24.5
2014-Oct-29 09:54N 32°28' W 043°23'1 7.4 24.5
2014-Oct-29 09:49N 32°29' W 043°23'0 0.0 24.5
2014-Oct-29 09:29N 32°29' W 043°23'1 7.0 24.5
2014-Oct-29 09:22N 32°29' W 043°24'1 0.9 24.5
2014-Oct-29 08:07N 32°29' W 043°25'0 0.5 24.5
2014-Oct-29 07:26N 32°29' W 043°25'0 3.1 24.5
2014-Oct-29 07:21N 32°29' W 043°25'0 0.0 24.5
2014-Oct-29 06:50N 32°29' W 043°25'1 3.3 24.5
2014-Oct-29 06:31N 32°29' W 043°26'0 0.0 24.5
2014-Oct-29 06:08N 32°29' W 043°26'0 0.0 24.5
2014-Oct-29 06:02N 32°29' W 043°26'0 0.0 24.5
2014-Oct-29 05:46N 32°29' W 043°26'0 0.3 24.5
2014-Oct-29 04:10N 32°30' W 043°26'0 0.0 24.5
2014-Oct-29 04:06N 32°30' W 043°26'1 9.9 24.5
2014-Oct-29 03:59N 32°28' W 043°27'0 0.0 24.5
2014-Oct-29 01:58N 32°28' W 043°27'1 0.6 24.5
2014-Oct-29 01:10N 32°29' W 043°26'1 9.9 24.5
2014-Oct-29 01:06N 32°29' W 043°26'0 0.2 24.5
2014-Oct-29 00:13N 32°29' W 043°26'0 0.5 24.5
2014-Oct-28 23:28N 32°30' W 043°26'0 2.8 24.6
2014-Oct-28 23:21N 32°29' W 043°26'0 0.0 24.6
2014-Oct-28 22:54N 32°29' W 043°26'0 0.6 24.6
2014-Oct-28 22:38N 32°29' W 043°26'1 6.5 24.6
2014-Oct-28 22:33N 32°30' W 043°25'0 0.0 24.6
2014-Oct-28 21:34N 32°30' W 043°25'0 0.3 24.6
2014-Oct-28 20:58N 32°30' W 043°25'0 0.0
2014-Oct-28 19:56N 32°30' W 043°25'0 0.0 24.7
2014-Oct-28 19:31N 32°30' W 043°25'0 3.1 24.7
2014-Oct-28 19:26N 32°30' W 043°26'0 0.3 24.7
2014-Oct-28 18:12N 32°30' W 043°26'0 3.7 24.7
2014-Oct-28 18:09N 32°30' W 043°26'1 2.2 24.7
2014-Oct-28 17:44N 32°30' W 043°25'0 0.2 24.6
2014-Oct-28 17:24N 32°30' W 043°25'1 0.3 24.7
2014-Oct-28 15:43N 32°30' W 043°25'2 1.0 24.6
2014-Oct-28 13:52N 32°32' W 043°25'0 0.0 24.6
2014-Oct-28 13:45N 32°32' W 043°25'0 0.0 24.6
2014-Oct-28 12:51N 32°32' W 043°25'0 0.0 24.5
2014-Oct-28 12:05N 32°32' W 043°25'0 0.0 24.5
2014-Oct-28 11:20N 32°32' W 043°25'1 7.7 24.5
2014-Oct-28 11:13N 32°33' W 043°26'0 0.0 24.5
2014-Oct-28 10:38N 32°33' W 043°26'0 0.8 24.5
2014-Oct-28 10:13N 32°33' W 043°27'0 0.0 24.5
2014-Oct-28 09:39N 32°33' W 043°27'0 3.6 24.5
2014-Oct-28 09:33N 32°33' W 043°27'0 0.3 24.5
2014-Oct-28 09:00N 32°33' W 043°27'0 0.4 24.5
2014-Oct-28 08:36N 32°33' W 043°27'1 2.0 24.5
2014-Oct-28 07:57N 32°33' W 043°29'0 0.3 24.5
2014-Oct-28 07:21N 32°33' W 043°29'0 0.3 24.5
2014-Oct-28 06:57N 32°33' W 043°29'1 1.8 24.5
2014-Oct-28 06:14N 32°32' W 043°30'0 0.0 24.6
2014-Oct-28 05:59N 32°32' W 043°30'0 0.0 24.6
2014-Oct-28 05:56N 32°32' W 043°30'122.5 24.6
2014-Oct-28 05:52N 32°31' W 043°31'0 0.0 24.6
2014-Oct-28 04:12N 32°31' W 043°31'2120.5 24.6
2014-Oct-28 04:11N 32°29' W 043°30'0 0.0 24.6
2014-Oct-28 01:25N 32°29' W 043°30'1 0.6 24.7
2014-Oct-27 23:40N 32°29' W 043°31'0 0.0 24.7
2014-Oct-27 23:24N 32°29' W 043°31'0 0.0 24.7
2014-Oct-27 22:59N 32°29' W 043°31'2 1.9 24.7
2014-Oct-27 21:49N 32°28' W 043°29'1 0.6 24.7
2014-Oct-27 20:20N 32°29' W 043°28'0 0.0 24.7
2014-Oct-27 19:58N 32°29' W 043°28'1 2.7 24.8
2014-Oct-27 19:37N 32°28' W 043°29'0 0.0 24.8
2014-Oct-27 18:40N 32°28' W 043°29'0 3.0 24.9
2014-Oct-27 18:36N 32°28' W 043°28'0 0.2 24.9
2014-Oct-27 17:55N 32°28' W 043°28'1 1.8 24.9
2014-Oct-27 17:36N 32°29' W 043°28'1 0.4 24.9
2014-Oct-27 15:52N 32°29' W 043°29'0 0.0 24.8
2014-Oct-27 14:57N 32°29' W 043°29'2 2.6 24.8
2014-Oct-27 14:13N 32°30' W 043°30'0 0.0 24.7
2014-Oct-27 12:26N 32°30' W 043°30'0 0.0 24.7
2014-Oct-27 11:41N 32°30' W 043°30'1 9.2 24.7
2014-Oct-27 11:34N 32°30' W 043°32'0 0.1 24.7
2014-Oct-27 08:59N 32°30' W 043°32'1 1.2 24.5
2014-Oct-27 08:09N 32°29' W 043°33'0 0.0 24.5
2014-Oct-27 07:53N 32°29' W 043°33'0 0.7 24.5
2014-Oct-27 07:22N 32°29' W 043°33'1 0.8 24.5
2014-Oct-27 06:31N 32°29' W 043°34'0 0.8 24.5
2014-Oct-27 06:11N 32°29' W 043°34'0 1.9 24.5
2014-Oct-27 06:06N 32°29' W 043°34'1 0.6 24.5
2014-Oct-27 04:29N 32°28' W 043°35'1 0.3 24.5
2014-Oct-27 01:47N 32°27' W 043°34'0 0.0 24.5
2014-Oct-27 00:59N 32°27' W 043°34'0 0.1 24.5
2014-Oct-27 00:13N 32°27' W 043°35'0 0.0 24.5
2014-Oct-27 00:05N 32°27' W 043°35'0 0.0 24.5
2014-Oct-26 23:19N 32°27' W 043°35'1 9.6 24.5
2014-Oct-26 23:14N 32°27' W 043°34'1 1.0 24.6
2014-Oct-26 22:26N 32°28' W 043°33'1 7.9
2014-Oct-26 22:20N 32°27' W 043°34'1 0.6 24.6
2014-Oct-26 20:44N 32°28' W 043°33'0 0.0 24.7
2014-Oct-26 20:33N 32°28' W 043°33'0 0.4 24.7
2014-Oct-26 19:49N 32°28' W 043°33'1 1.2 24.8
2014-Oct-26 19:06N 32°28' W 043°34'1 4.1 24.8
2014-Oct-26 18:57N 32°29' W 043°33'0 0.0 24.7
2014-Oct-26 18:07N 32°29' W 043°33'0 0.7 24.7
2014-Oct-26 17:46N 32°29' W 043°33'1 0.5 24.7
2014-Oct-26 16:06N 32°29' W 043°33'0 0.3 24.7
2014-Oct-26 14:33N 32°30' W 043°34'0 0.0 24.9
2014-Oct-26 14:22N 32°30' W 043°34'2 2.8 24.9
2014-Oct-26 13:43N 32°30' W 043°36'0 0.0 24.9
2014-Oct-26 12:57N 32°30' W 043°36'0 0.0 25.0
2014-Oct-26 12:51N 32°30' W 043°36'0 0.0
2014-Oct-26 12:00N 32°30' W 043°36'112.1 25.0
2014-Oct-26 11:54N 32°29' W 043°37'0 0.0 25.0
2014-Oct-26 10:04N 32°29' W 043°37'0 4.7 25.0
2014-Oct-26 09:58N 32°29' W 043°37'0 0.0 25.0
2014-Oct-26 09:28N 32°29' W 043°37'1 5.9 25.0
2014-Oct-26 09:19N 32°28' W 043°38'0 0.0 25.0
2014-Oct-26 08:26N 32°28' W 043°38'0 4.7 25.0
2014-Oct-26 08:22N 32°28' W 043°38'110.8 25.0
2014-Oct-26 08:17N 32°27' W 043°38'0 0.8 25.0
2014-Oct-26 07:50N 32°28' W 043°38'0 5.5 25.0
2014-Oct-26 07:46N 32°27' W 043°38'0 0.0 25.0
2014-Oct-26 06:42N 32°27' W 043°38'0 1.1 25.0
2014-Oct-26 06:35N 32°27' W 043°38'0 0.0 25.0
2014-Oct-26 06:23N 32°27' W 043°38'1 4.8 25.0
2014-Oct-26 06:14N 32°26' W 043°38'0 0.0 25.0
2014-Oct-26 04:39N 32°26' W 043°38'1 9.1 25.0
2014-Oct-26 04:32N 32°26' W 043°36'0 0.0 25.0
2014-Oct-26 01:21N 32°26' W 043°37'1 0.8 25.0
2014-Oct-26 00:29N 32°25' W 043°37'1 1.1 25.1
2014-Oct-25 23:36N 32°26' W 043°36'0 0.3 25.1
2014-Oct-25 22:53N 32°26' W 043°37'113.2 25.1
2014-Oct-25 22:50N 32°25' W 043°37'1 0.8 25.1
2014-Oct-25 22:00N 32°26' W 043°37'0 0.4 25.1
2014-Oct-25 21:10N 32°26' W 043°37'0 0.0 25.1
2014-Oct-25 21:01N 32°26' W 043°37'0 0.0
2014-Oct-25 19:58N 32°26' W 043°37'0 0.9 25.1
2014-Oct-25 19:30N 32°26' W 043°37'0 6.3 25.1
2014-Oct-25 19:26N 32°27' W 043°38'0 0.0 25.1
2014-Oct-25 18:13N 32°27' W 043°38'0 1.6 25.1
2014-Oct-25 17:57N 32°27' W 043°37'2 8.3 25.1
2014-Oct-25 17:46N 32°27' W 043°39'0 0.0 25.1
2014-Oct-25 16:14N 32°27' W 043°39'2 1.4 25.1
2014-Oct-25 14:34N 32°27' W 043°42'0 0.0 25.0
2014-Oct-25 14:04N 32°27' W 043°42'0 0.0 25.0
2014-Oct-25 13:12N 32°27' W 043°42'0 0.0 24.9
2014-Oct-25 12:22N 32°27' W 043°42'0 1.5 24.9
2014-Oct-25 12:18N 32°27' W 043°42'114.4 24.9
2014-Oct-25 12:13N 32°26' W 043°43'0 0.0 24.9
2014-Oct-25 11:28N 32°26' W 043°43'0 0.2 24.9
2014-Oct-25 09:50N 32°27' W 043°43'0 9.4 24.9
2014-Oct-25 09:47N 32°26' W 043°43'118.6 24.9
2014-Oct-25 09:43N 32°25' W 043°44'0 0.0 24.9
2014-Oct-25 08:57N 32°25' W 043°44'0 0.4 24.9
2014-Oct-25 08:35N 32°25' W 043°44'0 2.0 24.9
2014-Oct-25 08:28N 32°25' W 043°44'0 0.0 24.9
2014-Oct-25 08:09N 32°25' W 043°44'0 0.5 24.9
2014-Oct-25 07:13N 32°25' W 043°44'0 1.0 24.9
2014-Oct-25 06:54N 32°24' W 043°44'0 1.8 24.9
2014-Oct-25 06:47N 32°24' W 043°44'0 0.0 24.9
2014-Oct-25 06:34N 32°24' W 043°44'1 0.4 24.9
2014-Oct-25 04:51N 32°24' W 043°43'1 0.2 24.9
2014-Oct-25 01:42N 32°24' W 043°43'1 1.1 24.9
2014-Oct-25 00:54N 32°25' W 043°43'0 0.0 24.9
2014-Oct-25 00:04N 32°25' W 043°43'0 0.0 24.9
2014-Oct-24 23:58N 32°25' W 043°43'0 0.0 24.9
2014-Oct-24 23:19N 32°25' W 043°43'0 0.0 24.9
2014-Oct-24 23:12N 32°25' W 043°43'0 0.4 24.9
2014-Oct-24 22:17N 32°25' W 043°42'0 0.5 25.0
2014-Oct-24 21:32N 32°25' W 043°43'0 0.3 25.1
2014-Oct-24 20:10N 32°25' W 043°42'0 0.5 25.1
2014-Oct-24 19:54N 32°25' W 043°42'110.9 25.1
2014-Oct-24 19:49N 32°26' W 043°43'0 0.0 25.1
2014-Oct-24 18:30N 32°26' W 043°43'1 1.9 25.1
2014-Oct-24 18:12N 32°26' W 043°44'0 0.7 25.1
2014-Oct-24 18:07N 32°26' W 043°44'0 0.1 25.1
2014-Oct-24 16:27N 32°26' W 043°44'1 0.8 25.2
2014-Oct-24 14:44N 32°27' W 043°45'1 3.1 25.1
2014-Oct-24 14:24N 32°26' W 043°46'0 0.3 25.1
2014-Oct-24 13:36N 32°26' W 043°46'0 0.0 25.1
2014-Oct-24 12:41N 32°26' W 043°46'113.2 25.0
2014-Oct-24 12:35N 32°25' W 043°47'0 0.0 25.0
2014-Oct-24 11:56N 32°25' W 043°47'0 0.0 25.0
2014-Oct-24 11:49N 32°25' W 043°47'0 0.4 25.0
2014-Oct-24 10:59N 32°25' W 043°47'1 0.8 25.0
2014-Oct-24 10:13N 32°24' W 043°47'0 0.0 25.0
2014-Oct-24 09:28N 32°24' W 043°47'0 0.6 25.0
2014-Oct-24 08:43N 32°24' W 043°47'0 1.0 25.0
2014-Oct-24 08:40N 32°24' W 043°47'0 0.0 25.0
2014-Oct-24 08:34N 32°24' W 043°47'1 0.4 25.0
2014-Oct-24 07:05N 32°23' W 043°46'0 0.8 25.1
2014-Oct-24 06:56N 32°24' W 043°46'1 0.4 25.1
2014-Oct-24 04:59N 32°23' W 043°46'215.2 25.1
2014-Oct-24 04:53N 32°24' W 043°45'0 0.0 25.1
2014-Oct-24 03:21N 32°24' W 043°45'0 0.3 25.1
2014-Oct-24 01:59N 32°25' W 043°45'120.1 25.1
2014-Oct-24 01:57N 32°25' W 043°44'0 0.0 25.1
2014-Oct-24 01:12N 32°25' W 043°44'0 0.4 25.1
2014-Oct-24 00:24N 32°25' W 043°44'1 0.6 25.1
2014-Oct-23 23:29N 32°25' W 043°45'0 0.0 25.1
2014-Oct-23 23:25N 32°25' W 043°45'0 0.0 25.1
2014-Oct-23 22:41N 32°25' W 043°45'1 8.4 25.1
2014-Oct-23 22:37N 32°25' W 043°44'0 0.0 25.1
2014-Oct-23 22:12N 32°25' W 043°44'1 0.6 25.1
2014-Oct-23 20:27N 32°25' W 043°45'0 0.0 25.1
2014-Oct-23 20:22N 32°25' W 043°45'116.4 25.1
2014-Oct-23 20:20N 32°26' W 043°46'0 0.3 25.1
2014-Oct-23 18:42N 32°26' W 043°46'0 1.4 25.3
2014-Oct-23 18:33N 32°26' W 043°45'0 0.0 25.3
2014-Oct-23 18:17N 32°26' W 043°45'2 1.5 25.3
2014-Oct-23 16:58N 32°25' W 043°47'0 0.0 25.3
2014-Oct-23 16:39N 32°25' W 043°47'0 0.0 25.4
2014-Oct-23 14:57N 32°25' W 043°48'1 2.8 25.3
2014-Oct-23 14:43N 32°25' W 043°48'1 1.2 25.3
2014-Oct-23 13:56N 32°24' W 043°47'0 0.0 25.2
2014-Oct-23 13:49N 32°24' W 043°47'1 1.3 25.2
2014-Oct-23 13:06N 32°25' W 043°48'1 7.8 25.2
2014-Oct-23 12:59N 32°24' W 043°47'0 0.1 25.2
2014-Oct-23 12:09N 32°24' W 043°47'0 0.6 25.2
2014-Oct-23 11:23N 32°24' W 043°48'1 6.0 25.1
2014-Oct-23 11:14N 32°24' W 043°47'0 0.0
2014-Oct-23 10:37N 32°24' W 043°47'0 0.0 25.1
2014-Oct-23 09:59N 32°24' W 043°47'1 0.5 25.1
2014-Oct-23 08:59N 32°23' W 043°47'1 0.6 25.1
2014-Oct-23 07:13N 32°22' W 043°46'0 0.7 25.1
2014-Oct-23 07:08N 32°22' W 043°46'0 0.0 25.1
2014-Oct-23 06:55N 32°22' W 043°46'1 4.4 25.1
2014-Oct-23 06:48N 32°23' W 043°46'0 0.0 25.1
2014-Oct-23 06:38N 32°23' W 043°46'0 0.0 25.1
2014-Oct-23 05:12N 32°23' W 043°46'117.6 25.1
2014-Oct-23 05:07N 32°23' W 043°45'0 0.0 25.1
2014-Oct-23 03:30N 32°23' W 043°45'2 0.8 25.1
2014-Oct-23 01:34N 32°25' W 043°44'0 0.0 25.2
2014-Oct-23 00:45N 32°25' W 043°44'1 1.4 25.2
2014-Oct-22 23:55N 32°25' W 043°46'0 0.0 25.2
2014-Oct-22 23:47N 32°25' W 043°46'0 0.0 25.2
2014-Oct-22 22:59N 32°25' W 043°46'144.4 25.2
2014-Oct-22 22:58N 32°26' W 043°45'1 2.8 25.2
2014-Oct-22 22:45N 32°25' W 043°45'1 0.6 25.2
2014-Oct-22 20:56N 32°25' W 043°46'0 0.0 25.2
2014-Oct-22 20:44N 32°25' W 043°46'0 0.0 25.2
2014-Oct-22 20:30N 32°25' W 043°46'2 1.5 25.2
2014-Oct-22 19:22N 32°25' W 043°48'0 0.2 25.2
2014-Oct-22 18:53N 32°25' W 043°48'0 0.1 25.2
2014-Oct-22 18:26N 32°25' W 043°48'0 0.0 25.2
2014-Oct-22 17:10N 32°25' W 043°48'1 3.2 25.4
2014-Oct-22 16:50N 32°25' W 043°47'2 0.9 25.4
2014-Oct-22 15:09N 32°24' W 043°49'1 1.2 25.2
2014-Oct-22 14:13N 32°23' W 043°49'0 0.0 25.2
2014-Oct-22 14:06N 32°23' W 043°49'0 0.0
2014-Oct-22 12:28N 32°23' W 043°49'0 0.0 25.2
2014-Oct-22 11:43N 32°23' W 043°49'1 8.5 25.2
2014-Oct-22 11:38N 32°23' W 043°48'0 0.0 25.2
2014-Oct-22 10:27N 32°23' W 043°48'1 0.7 25.1
2014-Oct-22 09:23N 32°23' W 043°48'0 0.5 25.1
2014-Oct-22 09:07N 32°23' W 043°48'1 4.0 25.1
2014-Oct-22 08:59N 32°23' W 043°48'0 1.2 25.1
2014-Oct-22 08:50N 32°23' W 043°48'0 0.2 25.1
2014-Oct-22 07:44N 32°23' W 043°48'0 0.5 25.1
2014-Oct-22 07:27N 32°23' W 043°48'0 0.5 25.1
2014-Oct-22 07:21N 32°23' W 043°48'0 1.9 25.1
2014-Oct-22 07:11N 32°22' W 043°48'0 3.1 25.1
2014-Oct-22 07:05N 32°23' W 043°48'1 6.3 25.1
2014-Oct-22 06:58N 32°22' W 043°47'0 0.0 25.1
2014-Oct-22 05:41N 32°22' W 043°47'0 0.0
2014-Oct-22 05:24N 32°22' W 043°47'1 0.6 25.1
2014-Oct-22 03:44N 32°23' W 043°48'0 3.5 25.2
2014-Oct-22 03:37N 32°23' W 043°47'0 0.0 25.2
2014-Oct-22 01:50N 32°23' W 043°47'0 0.1 25.2
2014-Oct-22 01:00N 32°23' W 043°48'0 0.6 25.2
2014-Oct-22 00:13N 32°24' W 043°47'117.0 25.2
2014-Oct-22 00:08N 32°24' W 043°49'0 0.4 25.2
2014-Oct-21 23:25N 32°24' W 043°49'0 1.0 25.2
2014-Oct-21 23:13N 32°24' W 043°49'1 1.2 25.2
2014-Oct-21 22:33N 32°24' W 043°49'111.2 25.2
2014-Oct-21 22:28N 32°24' W 043°50'0 0.0 25.2
2014-Oct-21 21:38N 32°24' W 043°50'0 0.0 25.3
2014-Oct-21 20:41N 32°24' W 043°50'230.2 25.3
2014-Oct-21 20:38N 32°23' W 043°52'0 0.7 25.3
2014-Oct-21 19:56N 32°23' W 043°52'0 4.1 25.4
2014-Oct-21 19:49N 32°23' W 043°52'1 3.3 25.4
2014-Oct-21 19:28N 32°22' W 043°52'0 0.0 25.4
2014-Oct-21 19:05N 32°22' W 043°52'0 0.0 25.4
2014-Oct-21 18:59N 32°22' W 043°52'0 0.0 25.4
2014-Oct-21 18:56N 32°22' W 043°52'0 0.0 25.4
2014-Oct-21 18:36N 32°22' W 043°52'0 0.0 25.4
2014-Oct-21 17:45N 32°22' W 043°52'0 1.1 25.4
2014-Oct-21 17:21N 32°22' W 043°52'0 0.2 25.4
2014-Oct-21 16:58N 32°22' W 043°52'1 0.9 25.4
2014-Oct-21 15:18N 32°20' W 043°53'1 0.5 25.4
2014-Oct-21 13:47N 32°20' W 043°53'1 1.0 25.4
2014-Oct-21 12:59N 32°20' W 043°54'219.0 25.4
2014-Oct-21 12:52N 32°18' W 043°52'1 1.4 25.4
2014-Oct-21 12:07N 32°19' W 043°53'1 7.8 25.4
2014-Oct-21 11:59N 32°18' W 043°52'0 0.1 25.4
2014-Oct-21 09:43N 32°18' W 043°52'0 0.0 25.4
2014-Oct-21 09:18N 32°18' W 043°52'0 5.3 25.4
2014-Oct-21 09:13N 32°18' W 043°52'0 0.0 25.4
2014-Oct-21 08:09N 32°18' W 043°52'0 0.3 25.4
2014-Oct-21 07:42N 32°18' W 043°52'0 1.6 25.4
2014-Oct-21 07:33N 32°18' W 043°52'0 0.0 25.4
2014-Oct-21 07:13N 32°18' W 043°52'110.9 25.4
2014-Oct-21 07:10N 32°18' W 043°51'0 0.0 25.4
2014-Oct-21 05:58N 32°18' W 043°51'0 0.7 25.4
2014-Oct-21 05:30N 32°18' W 043°51'0 0.0 25.4
2014-Oct-21 03:57N 32°18' W 043°51'0 0.0 25.4
2014-Oct-21 03:54N 32°18' W 043°51'1 0.4 25.4
2014-Oct-21 01:25N 32°19' W 043°52'1 0.6 25.4
2014-Oct-21 00:28N 32°19' W 043°52'1 1.0 25.4
2014-Oct-20 23:46N 32°19' W 043°53'0 1.2 25.4
2014-Oct-20 23:40N 32°19' W 043°53'1 0.8 25.4
2014-Oct-20 22:56N 32°19' W 043°53'0 3.9 25.4
2014-Oct-20 22:52N 32°19' W 043°54'0 0.0 25.4
2014-Oct-20 22:09N 32°19' W 043°54'0 3.9 25.4
2014-Oct-20 22:02N 32°19' W 043°54'0 0.0 25.4
2014-Oct-20 21:32N 32°19' W 043°54'1 1.0 25.4
2014-Oct-20 20:54N 32°19' W 043°55'1 8.4 25.4
2014-Oct-20 20:49N 32°19' W 043°56'0 0.0 25.4
2014-Oct-20 20:22N 32°19' W 043°56'0 0.0 25.4
2014-Oct-20 19:54N 32°19' W 043°56'0 0.4 25.3
2014-Oct-20 19:13N 32°19' W 043°56'0 6.1 25.3
2014-Oct-20 19:11N 32°19' W 043°56'1 1.2 25.3
2014-Oct-20 18:10N 32°19' W 043°57'2 3.3 25.3
2014-Oct-20 17:35N 32°18' W 043°55'0 0.3 25.3
2014-Oct-20 17:12N 32°18' W 043°56'   25.3
Track history (hours):
 
Tides and Currents Weather Stations Pressure Air Temp Water Temp Dewpoint Dewpoint Depression Visibility Wind Speed Wind Dir Waves Ship Positions

Drifting buoy 41991

Last reported at 2014-Oct-30 16:59 UTC. Time now 2014-Oct-30 18:16 UTC.
Position N 32°16' W 043°26'.

Water temperature 24.5 ° C

Date/timePositionNaut miles runAvg speedWind from/ knotsBaromVisibWave heightAir tempDewpointWater temp
2014-Oct-30 16:59N 32°16' W 043°26'0 0.3 24.5
2014-Oct-30 15:21N 32°17' W 043°26'1 1.1 24.4
2014-Oct-30 13:59N 32°17' W 043°25'0 0.0 24.4
2014-Oct-30 13:13N 32°17' W 043°25'1 0.5 24.4
2014-Oct-30 12:12N 32°18' W 043°24'0 0.0 24.4
2014-Oct-30 11:31N 32°18' W 043°24'1 9.0 24.4
2014-Oct-30 11:22N 32°19' W 043°23'0 0.1 24.4
2014-Oct-30 09:28N 32°19' W 043°24'0 6.7 24.4
2014-Oct-30 09:25N 32°19' W 043°23'0 0.0 24.4
2014-Oct-30 09:17N 32°19' W 043°23'1 5.6 24.4
2014-Oct-30 09:10N 32°20' W 043°24'0 0.0 24.4
2014-Oct-30 07:59N 32°20' W 043°24'0 1.7 24.4
2014-Oct-30 07:48N 32°20' W 043°24'0 1.7 24.4
2014-Oct-30 07:38N 32°20' W 043°24'0 1.2 24.4
2014-Oct-30 07:34N 32°20' W 043°24'1 8.1 24.4
2014-Oct-30 07:30N 32°20' W 043°23'0 0.0 24.4
2014-Oct-30 07:13N 32°20' W 043°23'1 0.5 24.4
2014-Oct-30 05:51N 32°21' W 043°24'0 0.0 24.4
2014-Oct-30 05:36N 32°21' W 043°24'1 7.0 24.4
2014-Oct-30 05:29N 32°20' W 043°25'2 0.6 24.4
2014-Oct-30 01:32N 32°23' W 043°24'0 0.6 24.4
2014-Oct-30 00:51N 32°23' W 043°25'0 4.2 24.4
2014-Oct-30 00:44N 32°23' W 043°24'0 0.7 24.5
2014-Oct-29 23:59N 32°23' W 043°25'0 0.0 24.4
2014-Oct-29 23:54N 32°23' W 043°25'0 0.0 24.4
2014-Oct-29 23:09N 32°23' W 043°25'1 7.7 24.5
2014-Oct-29 23:02N 32°23' W 043°24'117.3 24.5
2014-Oct-29 22:59N 32°23' W 043°24'0 0.0 24.5
2014-Oct-29 22:27N 32°23' W 043°24'1 3.5 24.5
2014-Oct-29 22:18N 32°23' W 043°24'0 0.0 24.5
2014-Oct-29 22:12N 32°23' W 043°24'1 0.8 24.5
2014-Oct-29 21:10N 32°23' W 043°25'0 0.0 24.5
2014-Oct-29 20:50N 32°23' W 043°25'0 6.2 24.5
2014-Oct-29 20:47N 32°23' W 043°25'0 0.0 24.5
2014-Oct-29 20:38N 32°23' W 043°25'2 1.6 24.5
2014-Oct-29 19:32N 32°23' W 043°23'0 0.2 24.5
2014-Oct-29 19:12N 32°23' W 043°23'117.2 24.5
2014-Oct-29 19:07N 32°23' W 043°24'0 0.0 24.5
2014-Oct-29 17:48N 32°23' W 043°24'1 3.7 24.5
2014-Oct-29 17:32N 32°23' W 043°23'0 0.0 24.5
2014-Oct-29 17:13N 32°23' W 043°23'1 0.5 24.5
2014-Oct-29 15:31N 32°23' W 043°23'2 1.7 24.5
2014-Oct-29 14:20N 32°25' W 043°21'3 1.1 24.5
2014-Oct-29 11:45N 32°27' W 043°22'0 0.0 24.5
2014-Oct-29 10:58N 32°27' W 043°22'1 0.8 24.5
2014-Oct-29 10:08N 32°28' W 043°23'0 0.7 24.5
2014-Oct-29 09:54N 32°28' W 043°23'1 7.4 24.5
2014-Oct-29 09:49N 32°29' W 043°23'0 0.0 24.5
2014-Oct-29 09:29N 32°29' W 043°23'1 7.0 24.5
2014-Oct-29 09:22N 32°29' W 043°24'1 0.9 24.5
2014-Oct-29 08:07N 32°29' W 043°25'0 0.5 24.5
2014-Oct-29 07:26N 32°29' W 043°25'0 3.1 24.5
2014-Oct-29 07:21N 32°29' W 043°25'0 0.0 24.5
2014-Oct-29 06:50N 32°29' W 043°25'1 3.3 24.5
2014-Oct-29 06:31N 32°29' W 043°26'0 0.0 24.5
2014-Oct-29 06:08N 32°29' W 043°26'0 0.0 24.5
2014-Oct-29 06:02N 32°29' W 043°26'0 0.0 24.5
2014-Oct-29 05:46N 32°29' W 043°26'0 0.3 24.5
2014-Oct-29 04:10N 32°30' W 043°26'0 0.0 24.5
2014-Oct-29 04:06N 32°30' W 043°26'1 9.9 24.5
2014-Oct-29 03:59N 32°28' W 043°27'0 0.0 24.5
2014-Oct-29 01:58N 32°28' W 043°27'1 0.6 24.5
2014-Oct-29 01:10N 32°29' W 043°26'1 9.9 24.5
2014-Oct-29 01:06N 32°29' W 043°26'0 0.2 24.5
2014-Oct-29 00:13N 32°29' W 043°26'0 0.5 24.5
2014-Oct-28 23:28N 32°30' W 043°26'0 2.8 24.6
2014-Oct-28 23:21N 32°29' W 043°26'0 0.0 24.6
2014-Oct-28 22:54N 32°29' W 043°26'0 0.6 24.6
2014-Oct-28 22:38N 32°29' W 043°26'1 6.5 24.6
2014-Oct-28 22:33N 32°30' W 043°25'0 0.0 24.6
2014-Oct-28 21:34N 32°30' W 043°25'0 0.3 24.6
2014-Oct-28 20:58N 32°30' W 043°25'0 0.0
2014-Oct-28 19:56N 32°30' W 043°25'0 0.0 24.7
2014-Oct-28 19:31N 32°30' W 043°25'0 3.1 24.7
2014-Oct-28 19:26N 32°30' W 043°26'0 0.3 24.7
2014-Oct-28 18:12N 32°30' W 043°26'0 3.7 24.7
2014-Oct-28 18:09N 32°30' W 043°26'1 2.2 24.7
2014-Oct-28 17:44N 32°30' W 043°25'0 0.2 24.6
2014-Oct-28 17:24N 32°30' W 043°25'1 0.3 24.7
2014-Oct-28 15:43N 32°30' W 043°25'2 1.0 24.6
2014-Oct-28 13:52N 32°32' W 043°25'0 0.0 24.6
2014-Oct-28 13:45N 32°32' W 043°25'0 0.0 24.6
2014-Oct-28 12:51N 32°32' W 043°25'0 0.0 24.5
2014-Oct-28 12:05N 32°32' W 043°25'0 0.0 24.5
2014-Oct-28 11:20N 32°32' W 043°25'1 7.7 24.5
2014-Oct-28 11:13N 32°33' W 043°26'0 0.0 24.5
2014-Oct-28 10:38N 32°33' W 043°26'0 0.8 24.5
2014-Oct-28 10:13N 32°33' W 043°27'0 0.0 24.5
2014-Oct-28 09:39N 32°33' W 043°27'0 3.6 24.5
2014-Oct-28 09:33N 32°33' W 043°27'0 0.3 24.5
2014-Oct-28 09:00N 32°33' W 043°27'0 0.4 24.5
2014-Oct-28 08:36N 32°33' W 043°27'1 2.0 24.5
2014-Oct-28 07:57N 32°33' W 043°29'0 0.3 24.5
2014-Oct-28 07:21N 32°33' W 043°29'0 0.3 24.5
2014-Oct-28 06:57N 32°33' W 043°29'1 1.8 24.5
2014-Oct-28 06:14N 32°32' W 043°30'0 0.0 24.6
2014-Oct-28 05:59N 32°32' W 043°30'0 0.0 24.6
2014-Oct-28 05:56N 32°32' W 043°30'122.5 24.6
2014-Oct-28 05:52N 32°31' W 043°31'0 0.0 24.6
2014-Oct-28 04:12N 32°31' W 043°31'2120.5 24.6
2014-Oct-28 04:11N 32°29' W 043°30'0 0.0 24.6
2014-Oct-28 01:25N 32°29' W 043°30'1 0.6 24.7
2014-Oct-27 23:40N 32°29' W 043°31'0 0.0 24.7
2014-Oct-27 23:24N 32°29' W 043°31'0 0.0 24.7
2014-Oct-27 22:59N 32°29' W 043°31'2 1.9 24.7
2014-Oct-27 21:49N 32°28' W 043°29'1 0.6 24.7
2014-Oct-27 20:20N 32°29' W 043°28'0 0.0 24.7
2014-Oct-27 19:58N 32°29' W 043°28'1 2.7 24.8
2014-Oct-27 19:37N 32°28' W 043°29'0 0.0 24.8
2014-Oct-27 18:40N 32°28' W 043°29'0 3.0 24.9
2014-Oct-27 18:36N 32°28' W 043°28'0 0.2 24.9
2014-Oct-27 17:55N 32°28' W 043°28'1 1.8 24.9
2014-Oct-27 17:36N 32°29' W 043°28'1 0.4 24.9
2014-Oct-27 15:52N 32°29' W 043°29'0 0.0 24.8
2014-Oct-27 14:57N 32°29' W 043°29'2 2.6 24.8
2014-Oct-27 14:13N 32°30' W 043°30'0 0.0 24.7
2014-Oct-27 12:26N 32°30' W 043°30'0 0.0 24.7
2014-Oct-27 11:41N 32°30' W 043°30'1 9.2 24.7
2014-Oct-27 11:34N 32°30' W 043°32'0 0.1 24.7
2014-Oct-27 08:59N 32°30' W 043°32'1 1.2 24.5
2014-Oct-27 08:09N 32°29' W 043°33'0 0.0 24.5
2014-Oct-27 07:53N 32°29' W 043°33'0 0.7 24.5
2014-Oct-27 07:22N 32°29' W 043°33'1 0.8 24.5
2014-Oct-27 06:31N 32°29' W 043°34'0 0.8 24.5
2014-Oct-27 06:11N 32°29' W 043°34'0 1.9 24.5
2014-Oct-27 06:06N 32°29' W 043°34'1 0.6 24.5
2014-Oct-27 04:29N 32°28' W 043°35'1 0.3 24.5
2014-Oct-27 01:47N 32°27' W 043°34'0 0.0 24.5
2014-Oct-27 00:59N 32°27' W 043°34'0 0.1 24.5
2014-Oct-27 00:13N 32°27' W 043°35'0 0.0 24.5
2014-Oct-27 00:05N 32°27' W 043°35'0 0.0 24.5
2014-Oct-26 23:19N 32°27' W 043°35'1 9.6 24.5
2014-Oct-26 23:14N 32°27' W 043°34'1 1.0 24.6
2014-Oct-26 22:26N 32°28' W 043°33'1 7.9
2014-Oct-26 22:20N 32°27' W 043°34'1 0.6 24.6
2014-Oct-26 20:44N 32°28' W 043°33'0 0.0 24.7
2014-Oct-26 20:33N 32°28' W 043°33'0 0.4 24.7
2014-Oct-26 19:49N 32°28' W 043°33'1 1.2 24.8
2014-Oct-26 19:06N 32°28' W 043°34'1 4.1 24.8
2014-Oct-26 18:57N 32°29' W 043°33'0 0.0 24.7
2014-Oct-26 18:07N 32°29' W 043°33'0 0.7 24.7
2014-Oct-26 17:46N 32°29' W 043°33'1 0.5 24.7
2014-Oct-26 16:06N 32°29' W 043°33'0 0.3 24.7
2014-Oct-26 14:33N 32°30' W 043°34'0 0.0 24.9
2014-Oct-26 14:22N 32°30' W 043°34'2 2.8 24.9
2014-Oct-26 13:43N 32°30' W 043°36'0 0.0 24.9
2014-Oct-26 12:57N 32°30' W 043°36'0 0.0 25.0
2014-Oct-26 12:51N 32°30' W 043°36'0 0.0
2014-Oct-26 12:00N 32°30' W 043°36'112.1 25.0
2014-Oct-26 11:54N 32°29' W 043°37'0 0.0 25.0
2014-Oct-26 10:04N 32°29' W 043°37'0 4.7 25.0
2014-Oct-26 09:58N 32°29' W 043°37'0 0.0 25.0
2014-Oct-26 09:28N 32°29' W 043°37'1 5.9 25.0
2014-Oct-26 09:19N 32°28' W 043°38'0 0.0 25.0
2014-Oct-26 08:26N 32°28' W 043°38'0 4.7 25.0
2014-Oct-26 08:22N 32°28' W 043°38'110.8 25.0
2014-Oct-26 08:17N 32°27' W 043°38'0 0.8 25.0
2014-Oct-26 07:50N 32°28' W 043°38'0 5.5 25.0
2014-Oct-26 07:46N 32°27' W 043°38'0 0.0 25.0
2014-Oct-26 06:42N 32°27' W 043°38'0 1.1 25.0
2014-Oct-26 06:35N 32°27' W 043°38'0 0.0 25.0
2014-Oct-26 06:23N 32°27' W 043°38'1 4.8 25.0
2014-Oct-26 06:14N 32°26' W 043°38'0 0.0 25.0
2014-Oct-26 04:39N 32°26' W 043°38'1 9.1 25.0
2014-Oct-26 04:32N 32°26' W 043°36'0 0.0 25.0
2014-Oct-26 01:21N 32°26' W 043°37'1 0.8 25.0
2014-Oct-26 00:29N 32°25' W 043°37'1 1.1 25.1
2014-Oct-25 23:36N 32°26' W 043°36'0 0.3 25.1
2014-Oct-25 22:53N 32°26' W 043°37'113.2 25.1
2014-Oct-25 22:50N 32°25' W 043°37'1 0.8 25.1
2014-Oct-25 22:00N 32°26' W 043°37'0 0.4 25.1
2014-Oct-25 21:10N 32°26' W 043°37'0 0.0 25.1
2014-Oct-25 21:01N 32°26' W 043°37'0 0.0
2014-Oct-25 19:58N 32°26' W 043°37'0 0.9 25.1
2014-Oct-25 19:30N 32°26' W 043°37'0 6.3 25.1
2014-Oct-25 19:26N 32°27' W 043°38'0 0.0 25.1
2014-Oct-25 18:13N 32°27' W 043°38'0 1.6 25.1
2014-Oct-25 17:57N 32°27' W 043°37'2 8.3 25.1
2014-Oct-25 17:46N 32°27' W 043°39'0 0.0 25.1
2014-Oct-25 16:14N 32°27' W 043°39'2 1.4 25.1
2014-Oct-25 14:34N 32°27' W 043°42'0 0.0 25.0
2014-Oct-25 14:04N 32°27' W 043°42'0 0.0 25.0
2014-Oct-25 13:12N 32°27' W 043°42'0 0.0 24.9
2014-Oct-25 12:22N 32°27' W 043°42'0 1.5 24.9
2014-Oct-25 12:18N 32°27' W 043°42'114.4 24.9
2014-Oct-25 12:13N 32°26' W 043°43'0 0.0 24.9
2014-Oct-25 11:28N 32°26' W 043°43'0 0.2 24.9
2014-Oct-25 09:50N 32°27' W 043°43'0 9.4 24.9
2014-Oct-25 09:47N 32°26' W 043°43'118.6 24.9
2014-Oct-25 09:43N 32°25' W 043°44'0 0.0 24.9
2014-Oct-25 08:57N 32°25' W 043°44'0 0.4 24.9
2014-Oct-25 08:35N 32°25' W 043°44'0 2.0 24.9
2014-Oct-25 08:28N 32°25' W 043°44'0 0.0 24.9
2014-Oct-25 08:09N 32°25' W 043°44'0 0.5 24.9
2014-Oct-25 07:13N 32°25' W 043°44'0 1.0 24.9
2014-Oct-25 06:54N 32°24' W 043°44'0 1.8 24.9
2014-Oct-25 06:47N 32°24' W 043°44'0 0.0 24.9
2014-Oct-25 06:34N 32°24' W 043°44'1 0.4 24.9
2014-Oct-25 04:51N 32°24' W 043°43'1 0.2 24.9
2014-Oct-25 01:42N 32°24' W 043°43'1 1.1 24.9
2014-Oct-25 00:54N 32°25' W 043°43'0 0.0 24.9
2014-Oct-25 00:04N 32°25' W 043°43'0 0.0 24.9
2014-Oct-24 23:58N 32°25' W 043°43'0 0.0 24.9
2014-Oct-24 23:19N 32°25' W 043°43'0 0.0 24.9
2014-Oct-24 23:12N 32°25' W 043°43'0 0.4 24.9
2014-Oct-24 22:17N 32°25' W 043°42'0 0.5 25.0
2014-Oct-24 21:32N 32°25' W 043°43'0 0.3 25.1
2014-Oct-24 20:10N 32°25' W 043°42'0 0.5 25.1
2014-Oct-24 19:54N 32°25' W 043°42'110.9 25.1
2014-Oct-24 19:49N 32°26' W 043°43'0 0.0 25.1
2014-Oct-24 18:30N 32°26' W 043°43'1 1.9 25.1
2014-Oct-24 18:12N 32°26' W 043°44'0 0.7 25.1
2014-Oct-24 18:07N 32°26' W 043°44'0 0.1 25.1
2014-Oct-24 16:27N 32°26' W 043°44'1 0.8 25.2
2014-Oct-24 14:44N 32°27' W 043°45'1 3.1 25.1
2014-Oct-24 14:24N 32°26' W 043°46'0 0.3 25.1
2014-Oct-24 13:36N 32°26' W 043°46'0 0.0 25.1
2014-Oct-24 12:41N 32°26' W 043°46'113.2 25.0
2014-Oct-24 12:35N 32°25' W 043°47'0 0.0 25.0
2014-Oct-24 11:56N 32°25' W 043°47'0 0.0 25.0
2014-Oct-24 11:49N 32°25' W 043°47'0 0.4 25.0
2014-Oct-24 10:59N 32°25' W 043°47'1 0.8 25.0
2014-Oct-24 10:13N 32°24' W 043°47'0 0.0 25.0
2014-Oct-24 09:28N 32°24' W 043°47'0 0.6 25.0
2014-Oct-24 08:43N 32°24' W 043°47'0 1.0 25.0
2014-Oct-24 08:40N 32°24' W 043°47'0 0.0 25.0
2014-Oct-24 08:34N 32°24' W 043°47'1 0.4 25.0
2014-Oct-24 07:05N 32°23' W 043°46'0 0.8 25.1
2014-Oct-24 06:56N 32°24' W 043°46'1 0.4 25.1
2014-Oct-24 04:59N 32°23' W 043°46'215.2 25.1
2014-Oct-24 04:53N 32°24' W 043°45'0 0.0 25.1
2014-Oct-24 03:21N 32°24' W 043°45'0 0.3 25.1
2014-Oct-24 01:59N 32°25' W 043°45'120.1 25.1
2014-Oct-24 01:57N 32°25' W 043°44'0 0.0 25.1
2014-Oct-24 01:12N 32°25' W 043°44'0 0.4 25.1
2014-Oct-24 00:24N 32°25' W 043°44'1 0.6 25.1
2014-Oct-23 23:29N 32°25' W 043°45'0 0.0 25.1
2014-Oct-23 23:25N 32°25' W 043°45'0 0.0 25.1
2014-Oct-23 22:41N 32°25' W 043°45'1 8.4 25.1
2014-Oct-23 22:37N 32°25' W 043°44'0 0.0 25.1
2014-Oct-23 22:12N 32°25' W 043°44'1 0.6 25.1
2014-Oct-23 20:27N 32°25' W 043°45'0 0.0 25.1
2014-Oct-23 20:22N 32°25' W 043°45'116.4 25.1
2014-Oct-23 20:20N 32°26' W 043°46'0 0.3 25.1
2014-Oct-23 18:42N 32°26' W 043°46'0 1.4 25.3
2014-Oct-23 18:33N 32°26' W 043°45'0 0.0 25.3
2014-Oct-23 18:17N 32°26' W 043°45'2 1.5 25.3
2014-Oct-23 16:58N 32°25' W 043°47'0 0.0 25.3
2014-Oct-23 16:39N 32°25' W 043°47'0 0.0 25.4
2014-Oct-23 14:57N 32°25' W 043°48'1 2.8 25.3
2014-Oct-23 14:43N 32°25' W 043°48'1 1.2 25.3
2014-Oct-23 13:56N 32°24' W 043°47'0 0.0 25.2
2014-Oct-23 13:49N 32°24' W 043°47'1 1.3 25.2
2014-Oct-23 13:06N 32°25' W 043°48'1 7.8 25.2
2014-Oct-23 12:59N 32°24' W 043°47'0 0.1 25.2
2014-Oct-23 12:09N 32°24' W 043°47'0 0.6 25.2
2014-Oct-23 11:23N 32°24' W 043°48'1 6.0 25.1
2014-Oct-23 11:14N 32°24' W 043°47'0 0.0
2014-Oct-23 10:37N 32°24' W 043°47'0 0.0 25.1
2014-Oct-23 09:59N 32°24' W 043°47'1 0.5 25.1
2014-Oct-23 08:59N 32°23' W 043°47'1 0.6 25.1
2014-Oct-23 07:13N 32°22' W 043°46'0 0.7 25.1
2014-Oct-23 07:08N 32°22' W 043°46'0 0.0 25.1
2014-Oct-23 06:55N 32°22' W 043°46'1 4.4 25.1
2014-Oct-23 06:48N 32°23' W 043°46'0 0.0 25.1
2014-Oct-23 06:38N 32°23' W 043°46'0 0.0 25.1
2014-Oct-23 05:12N 32°23' W 043°46'117.6 25.1
2014-Oct-23 05:07N 32°23' W 043°45'0 0.0 25.1
2014-Oct-23 03:30N 32°23' W 043°45'2 0.8 25.1
2014-Oct-23 01:34N 32°25' W 043°44'0 0.0 25.2
2014-Oct-23 00:45N 32°25' W 043°44'1 1.4 25.2
2014-Oct-22 23:55N 32°25' W 043°46'0 0.0 25.2
2014-Oct-22 23:47N 32°25' W 043°46'0 0.0 25.2
2014-Oct-22 22:59N 32°25' W 043°46'144.4 25.2
2014-Oct-22 22:58N 32°26' W 043°45'1 2.8 25.2
2014-Oct-22 22:45N 32°25' W 043°45'1 0.6 25.2
2014-Oct-22 20:56N 32°25' W 043°46'0 0.0 25.2
2014-Oct-22 20:44N 32°25' W 043°46'0 0.0 25.2
2014-Oct-22 20:30N 32°25' W 043°46'2 1.5 25.2
2014-Oct-22 19:22N 32°25' W 043°48'0 0.2 25.2
2014-Oct-22 18:53N 32°25' W 043°48'0 0.1 25.2
2014-Oct-22 18:26N 32°25' W 043°48'0 0.0 25.2
2014-Oct-22 17:10N 32°25' W 043°48'1 3.2 25.4
2014-Oct-22 16:50N 32°25' W 043°47'2 0.9 25.4
2014-Oct-22 15:09N 32°24' W 043°49'1 1.2 25.2
2014-Oct-22 14:13N 32°23' W 043°49'0 0.0 25.2
2014-Oct-22 14:06N 32°23' W 043°49'0 0.0
2014-Oct-22 12:28N 32°23' W 043°49'0 0.0 25.2
2014-Oct-22 11:43N 32°23' W 043°49'1 8.5 25.2
2014-Oct-22 11:38N 32°23' W 043°48'0 0.0 25.2
2014-Oct-22 10:27N 32°23' W 043°48'1 0.7 25.1
2014-Oct-22 09:23N 32°23' W 043°48'0 0.5 25.1
2014-Oct-22 09:07N 32°23' W 043°48'1 4.0 25.1
2014-Oct-22 08:59N 32°23' W 043°48'0 1.2 25.1
2014-Oct-22 08:50N 32°23' W 043°48'0 0.2 25.1
2014-Oct-22 07:44N 32°23' W 043°48'0 0.5 25.1
2014-Oct-22 07:27N 32°23' W 043°48'0 0.5 25.1
2014-Oct-22 07:21N 32°23' W 043°48'0 1.9 25.1
2014-Oct-22 07:11N 32°22' W 043°48'0 3.1 25.1
2014-Oct-22 07:05N 32°23' W 043°48'1 6.3 25.1
2014-Oct-22 06:58N 32°22' W 043°47'0 0.0 25.1
2014-Oct-22 05:41N 32°22' W 043°47'0 0.0
2014-Oct-22 05:24N 32°22' W 043°47'1 0.6 25.1
2014-Oct-22 03:44N 32°23' W 043°48'0 3.5 25.2
2014-Oct-22 03:37N 32°23' W 043°47'0 0.0 25.2
2014-Oct-22 01:50N 32°23' W 043°47'0 0.1 25.2
2014-Oct-22 01:00N 32°23' W 043°48'0 0.6 25.2
2014-Oct-22 00:13N 32°24' W 043°47'117.0 25.2
2014-Oct-22 00:08N 32°24' W 043°49'0 0.4 25.2
2014-Oct-21 23:25N 32°24' W 043°49'0 1.0 25.2
2014-Oct-21 23:13N 32°24' W 043°49'1 1.2 25.2
2014-Oct-21 22:33N 32°24' W 043°49'111.2 25.2
2014-Oct-21 22:28N 32°24' W 043°50'0 0.0 25.2
2014-Oct-21 21:38N 32°24' W 043°50'0 0.0 25.3
2014-Oct-21 20:41N 32°24' W 043°50'230.2 25.3
2014-Oct-21 20:38N 32°23' W 043°52'0 0.7 25.3
2014-Oct-21 19:56N 32°23' W 043°52'0 4.1 25.4
2014-Oct-21 19:49N 32°23' W 043°52'1 3.3 25.4
2014-Oct-21 19:28N 32°22' W 043°52'0 0.0 25.4
2014-Oct-21 19:05N 32°22' W 043°52'0 0.0 25.4
2014-Oct-21 18:59N 32°22' W 043°52'0 0.0 25.4
2014-Oct-21 18:56N 32°22' W 043°52'0 0.0 25.4
2014-Oct-21 18:36N 32°22' W 043°52'0 0.0 25.4
2014-Oct-21 17:45N 32°22' W 043°52'0 1.1 25.4
2014-Oct-21 17:21N 32°22' W 043°52'0 0.2 25.4
2014-Oct-21 16:58N 32°22' W 043°52'1 0.9 25.4
2014-Oct-21 15:18N 32°20' W 043°53'1 0.5 25.4
2014-Oct-21 13:47N 32°20' W 043°53'1 1.0 25.4
2014-Oct-21 12:59N 32°20' W 043°54'219.0 25.4
2014-Oct-21 12:52N 32°18' W 043°52'1 1.4 25.4
2014-Oct-21 12:07N 32°19' W 043°53'1 7.8 25.4
2014-Oct-21 11:59N 32°18' W 043°52'0 0.1 25.4
2014-Oct-21 09:43N 32°18' W 043°52'0 0.0 25.4
2014-Oct-21 09:18N 32°18' W 043°52'0 5.3 25.4
2014-Oct-21 09:13N 32°18' W 043°52'0 0.0 25.4
2014-Oct-21 08:09N 32°18' W 043°52'0 0.3 25.4
2014-Oct-21 07:42N 32°18' W 043°52'0 1.6 25.4
2014-Oct-21 07:33N 32°18' W 043°52'0 0.0 25.4
2014-Oct-21 07:13N 32°18' W 043°52'110.9 25.4
2014-Oct-21 07:10N 32°18' W 043°51'0 0.0 25.4
2014-Oct-21 05:58N 32°18' W 043°51'0 0.7 25.4
2014-Oct-21 05:30N 32°18' W 043°51'0 0.0 25.4
2014-Oct-21 03:57N 32°18' W 043°51'0 0.0 25.4
2014-Oct-21 03:54N 32°18' W 043°51'1 0.4 25.4
2014-Oct-21 01:25N 32°19' W 043°52'1 0.6 25.4
2014-Oct-21 00:28N 32°19' W 043°52'1 1.0 25.4
2014-Oct-20 23:46N 32°19' W 043°53'0 1.2 25.4
2014-Oct-20 23:40N 32°19' W 043°53'1 0.8 25.4
2014-Oct-20 22:56N 32°19' W 043°53'0 3.9 25.4
2014-Oct-20 22:52N 32°19' W 043°54'0 0.0 25.4
2014-Oct-20 22:09N 32°19' W 043°54'0 3.9 25.4
2014-Oct-20 22:02N 32°19' W 043°54'0 0.0 25.4
2014-Oct-20 21:32N 32°19' W 043°54'1 1.0 25.4
2014-Oct-20 20:54N 32°19' W 043°55'1 8.4 25.4
2014-Oct-20 20:49N 32°19' W 043°56'0 0.0 25.4
2014-Oct-20 20:22N 32°19' W 043°56'0 0.0 25.4
2014-Oct-20 19:54N 32°19' W 043°56'0 0.4 25.3
2014-Oct-20 19:13N 32°19' W 043°56'0 6.1 25.3
2014-Oct-20 19:11N 32°19' W 043°56'1 1.2 25.3
2014-Oct-20 18:10N 32°19' W 043°57'2 3.3 25.3
2014-Oct-20 17:35N 32°18' W 043°55'0 0.3 25.3
2014-Oct-20 17:12N 32°18' W 043°56'   25.3

Dump ship's entire track history